Cloverdale, Alabama
Current Conditions -  °F | °C
As of 5:53 AM on Thursday 27 Nov 2014 (Local Time) from KMSL Reporting Station
Overcast Overcast  
Wind Chill: 34°   Ceiling: 2600
Heat Index: 40°   Visibility: 10mi
Dew Point: 32°   Wind: 8mph
Humidity: 73%   Direction: 300°WNW
Pressure: 30.3"   Gusts: NA
Location:  34.94°N, 87.77°W
Report Text: KMSL 271153Z AUTO 30007KT 10SM BKN026 OVC038 04/00 A3030 RMK AO2 SLP262 7//// T00440000 10044 20028 53028 $
Loading
Personal Weather Stations






























Interactive Weather Map New forecast layout! Learn more

10-Day Weather Forecast

Advertisements
Track Severe Weather on mobile